sensor_id;sensor_type;location;lat;lon;timestamp;P1;durP1;ratioP1;P2;durP2;ratioP2
37459;SDS011;23318;50.966;5.284;2023-02-19T00:01:16;7.47;;;6.07;;
37459;SDS011;23318;50.966;5.284;2023-02-19T00:03:54;6.25;;;5.65;;
37459;SDS011;23318;50.966;5.284;2023-02-19T00:08:48;7.85;;;6.03;;
37459;SDS011;23318;50.966;5.284;2023-02-19T00:11:15;8.13;;;6.18;;
37459;SDS011;23318;50.966;5.284;2023-02-19T00:13:43;7.35;;;6.00;;
37459;SDS011;23318;50.966;5.284;2023-02-19T00:18:37;6.43;;;5.65;;
37459;SDS011;23318;50.966;5.284;2023-02-19T00:21:03;6.20;;;5.20;;
37459;SDS011;23318;50.966;5.284;2023-02-19T00:23:29;5.95;;;5.38;;
37459;SDS011;23318;50.966;5.284;2023-02-19T00:25:55;6.25;;;4.60;;
37459;SDS011;23318;50.966;5.284;2023-02-19T00:28:21;7.30;;;5.53;;
37459;SDS011;23318;50.966;5.284;2023-02-19T00:30:47;10.00;;;6.05;;
37459;SDS011;23318;50.966;5.284;2023-02-19T00:33:13;8.27;;;6.10;;
37459;SDS011;23318;50.966;5.284;2023-02-19T00:35:39;6.43;;;5.22;;
37459;SDS011;23318;50.966;5.284;2023-02-19T00:38:05;9.25;;;6.03;;
37459;SDS011;23318;50.966;5.284;2023-02-19T00:40:31;7.97;;;6.22;;
37459;SDS011;23318;50.966;5.284;2023-02-19T00:42:56;9.00;;;5.70;;
37459;SDS011;23318;50.966;5.284;2023-02-19T00:45:22;7.40;;;5.88;;
37459;SDS011;23318;50.966;5.284;2023-02-19T00:47:48;8.10;;;6.25;;
37459;SDS011;23318;50.966;5.284;2023-02-19T00:50:14;8.55;;;6.22;;
37459;SDS011;23318;50.966;5.284;2023-02-19T00:52:39;7.50;;;5.72;;
37459;SDS011;23318;50.966;5.284;2023-02-19T00:55:05;9.68;;;5.95;;
37459;SDS011;23318;50.966;5.284;2023-02-19T00:57:31;5.95;;;5.22;;
37459;SDS011;23318;50.966;5.284;2023-02-19T00:59:56;9.45;;;5.85;;
37459;SDS011;23318;50.966;5.284;2023-02-19T01:02:22;8.32;;;5.50;;
37459;SDS011;23318;50.966;5.284;2023-02-19T01:04:48;9.48;;;6.03;;
37459;SDS011;23318;50.966;5.284;2023-02-19T01:07:13;11.77;;;5.82;;
37459;SDS011;23318;50.966;5.284;2023-02-19T01:09:39;8.00;;;5.90;;
37459;SDS011;23318;50.966;5.284;2023-02-19T01:12:05;8.95;;;5.53;;
37459;SDS011;23318;50.966;5.284;2023-02-19T01:14:31;8.18;;;5.38;;
37459;SDS011;23318;50.966;5.284;2023-02-19T01:16:57;7.30;;;5.25;;
37459;SDS011;23318;50.966;5.284;2023-02-19T01:19:23;6.90;;;5.50;;
37459;SDS011;23318;50.966;5.284;2023-02-19T01:21:48;7.72;;;5.15;;
37459;SDS011;23318;50.966;5.284;2023-02-19T01:24:14;8.88;;;6.20;;
37459;SDS011;23318;50.966;5.284;2023-02-19T01:26:41;8.90;;;6.28;;
37459;SDS011;23318;50.966;5.284;2023-02-19T01:29:07;9.10;;;6.05;;
37459;SDS011;23318;50.966;5.284;2023-02-19T01:31:33;9.63;;;6.35;;
37459;SDS011;23318;50.966;5.284;2023-02-19T01:33:59;8.90;;;6.25;;
37459;SDS011;23318;50.966;5.284;2023-02-19T01:36:26;11.85;;;6.63;;
37459;SDS011;23318;50.966;5.284;2023-02-19T01:38:53;14.30;;;6.90;;
37459;SDS011;23318;50.966;5.284;2023-02-19T01:41:20;9.77;;;6.63;;
37459;SDS011;23318;50.966;5.284;2023-02-19T01:44:05;11.05;;;7.00;;
37459;SDS011;23318;50.966;5.284;2023-02-19T01:46:39;14.10;;;8.10;;
37459;SDS011;23318;50.966;5.284;2023-02-19T01:49:07;14.45;;;7.93;;
37459;SDS011;23318;50.966;5.284;2023-02-19T01:52:22;13.52;;;8.68;;
37459;SDS011;23318;50.966;5.284;2023-02-19T01:54:34;15.65;;;7.90;;
37459;SDS011;23318;50.966;5.284;2023-02-19T01:57:04;10.30;;;7.32;;
37459;SDS011;23318;50.966;5.284;2023-02-19T01:59:34;15.90;;;7.63;;
37459;SDS011;23318;50.966;5.284;2023-02-19T02:02:00;13.40;;;7.85;;
37459;SDS011;23318;50.966;5.284;2023-02-19T02:04:26;18.63;;;8.15;;
37459;SDS011;23318;50.966;5.284;2023-02-19T02:06:55;16.65;;;8.73;;
37459;SDS011;23318;50.966;5.284;2023-02-19T02:09:24;15.88;;;8.27;;
37459;SDS011;23318;50.966;5.284;2023-02-19T02:12:10;19.65;;;8.18;;
37459;SDS011;23318;50.966;5.284;2023-02-19T02:14:37;13.93;;;7.90;;
37459;SDS011;23318;50.966;5.284;2023-02-19T02:30:53;15.00;;;8.10;;
37459;SDS011;23318;50.966;5.284;2023-02-19T02:33:30;21.27;;;8.15;;
37459;SDS011;23318;50.966;5.284;2023-02-19T02:36:07;16.33;;;8.35;;
37459;SDS011;23318;50.966;5.284;2023-02-19T02:38:39;16.85;;;7.63;;
37459;SDS011;23318;50.966;5.284;2023-02-19T02:41:08;16.48;;;7.47;;
37459;SDS011;23318;50.966;5.284;2023-02-19T02:43:35;16.25;;;7.35;;
37459;SDS011;23318;50.966;5.284;2023-02-19T02:46:01;16.20;;;7.90;;
37459;SDS011;23318;50.966;5.284;2023-02-19T02:48:32;12.07;;;7.20;;
37459;SDS011;23318;50.966;5.284;2023-02-19T02:54:15;19.17;;;7.25;;
37459;SDS011;23318;50.966;5.284;2023-02-19T02:57:03;19.63;;;8.32;;
37459;SDS011;23318;50.966;5.284;2023-02-19T02:59:35;13.02;;;7.63;;
37459;SDS011;23318;50.966;5.284;2023-02-19T03:02:04;16.30;;;6.95;;
37459;SDS011;23318;50.966;5.284;2023-02-19T03:08:06;17.77;;;6.60;;
37459;SDS011;23318;50.966;5.284;2023-02-19T03:10:40;18.95;;;6.78;;
37459;SDS011;23318;50.966;5.284;2023-02-19T03:13:14;19.02;;;7.22;;
37459;SDS011;23318;50.966;5.284;2023-02-19T03:16:05;15.93;;;6.45;;
37459;SDS011;23318;50.966;5.284;2023-02-19T03:18:53;16.45;;;6.13;;
37459;SDS011;23318;50.966;5.284;2023-02-19T03:21:41;11.93;;;5.40;;
37459;SDS011;23318;50.966;5.284;2023-02-19T03:24:09;15.07;;;5.80;;
37459;SDS011;23318;50.966;5.284;2023-02-19T03:26:55;17.15;;;5.30;;
37459;SDS011;23318;50.966;5.284;2023-02-19T03:29:25;11.10;;;4.50;;
37459;SDS011;23318;50.966;5.284;2023-02-19T03:31:57;11.43;;;4.72;;
37459;SDS011;23318;50.966;5.284;2023-02-19T03:34:28;14.80;;;4.97;;
37459;SDS011;23318;50.966;5.284;2023-02-19T03:40:17;15.98;;;4.65;;
37459;SDS011;23318;50.966;5.284;2023-02-19T03:42:52;19.40;;;4.60;;
37459;SDS011;23318;50.966;5.284;2023-02-19T03:53:29;12.52;;;3.38;;
37459;SDS011;23318;50.966;5.284;2023-02-19T03:58:52;12.98;;;3.40;;
37459;SDS011;23318;50.966;5.284;2023-02-19T04:01:51;9.32;;;3.05;;
37459;SDS011;23318;50.966;5.284;2023-02-19T04:06:54;16.52;;;3.60;;
37459;SDS011;23318;50.966;5.284;2023-02-19T04:09:22;7.55;;;2.53;;
37459;SDS011;23318;50.966;5.284;2023-02-19T04:11:54;17.40;;;3.47;;
37459;SDS011;23318;50.966;5.284;2023-02-19T04:14:21;15.77;;;3.47;;
37459;SDS011;23318;50.966;5.284;2023-02-19T04:16:53;13.80;;;2.80;;
37459;SDS011;23318;50.966;5.284;2023-02-19T04:19:25;15.52;;;3.15;;
37459;SDS011;23318;50.966;5.284;2023-02-19T04:21:53;11.23;;;3.22;;
37459;SDS011;23318;50.966;5.284;2023-02-19T04:24:39;13.10;;;3.15;;
37459;SDS011;23318;50.966;5.284;2023-02-19T04:27:11;8.38;;;3.28;;
37459;SDS011;23318;50.966;5.284;2023-02-19T04:29:37;13.80;;;3.35;;
37459;SDS011;23318;50.966;5.284;2023-02-19T04:32:02;11.80;;;3.15;;
37459;SDS011;23318;50.966;5.284;2023-02-19T04:34:28;10.90;;;3.28;;
37459;SDS011;23318;50.966;5.284;2023-02-19T04:36:54;12.20;;;3.10;;
37459;SDS011;23318;50.966;5.284;2023-02-19T04:39:20;10.63;;;2.92;;
37459;SDS011;23318;50.966;5.284;2023-02-19T04:41:45;12.82;;;2.90;;
37459;SDS011;23318;50.966;5.284;2023-02-19T04:44:11;23.20;;;2.63;;
37459;SDS011;23318;50.966;5.284;2023-02-19T04:46:38;11.85;;;2.97;;
37459;SDS011;23318;50.966;5.284;2023-02-19T04:49:04;14.27;;;3.33;;
37459;SDS011;23318;50.966;5.284;2023-02-19T04:51:30;13.27;;;3.35;;
37459;SDS011;23318;50.966;5.284;2023-02-19T04:53:56;13.00;;;3.33;;
37459;SDS011;23318;50.966;5.284;2023-02-19T04:56:21;11.02;;;3.40;;
37459;SDS011;23318;50.966;5.284;2023-02-19T04:58:47;13.85;;;2.42;;
37459;SDS011;23318;50.966;5.284;2023-02-19T05:01:13;15.38;;;3.22;;
37459;SDS011;23318;50.966;5.284;2023-02-19T05:03:39;16.08;;;3.05;;
37459;SDS011;23318;50.966;5.284;2023-02-19T05:06:05;14.63;;;3.20;;
37459;SDS011;23318;50.966;5.284;2023-02-19T05:08:33;12.05;;;3.03;;
37459;SDS011;23318;50.966;5.284;2023-02-19T05:11:00;12.60;;;3.17;;
37459;SDS011;23318;50.966;5.284;2023-02-19T05:13:27;17.98;;;4.10;;
37459;SDS011;23318;50.966;5.284;2023-02-19T05:15:57;20.50;;;4.63;;
37459;SDS011;23318;50.966;5.284;2023-02-19T05:18:24;13.20;;;3.38;;
37459;SDS011;23318;50.966;5.284;2023-02-19T05:20:50;19.67;;;3.30;;
37459;SDS011;23318;50.966;5.284;2023-02-19T05:23:17;13.60;;;2.92;;
37459;SDS011;23318;50.966;5.284;2023-02-19T05:25:43;13.57;;;2.97;;
37459;SDS011;23318;50.966;5.284;2023-02-19T05:28:09;7.88;;;2.38;;
37459;SDS011;23318;50.966;5.284;2023-02-19T05:30:41;11.50;;;2.80;;
37459;SDS011;23318;50.966;5.284;2023-02-19T05:33:17;13.45;;;2.60;;
37459;SDS011;23318;50.966;5.284;2023-02-19T05:35:51;14.15;;;3.53;;
37459;SDS011;23318;50.966;5.284;2023-02-19T05:38:18;12.82;;;3.03;;
37459;SDS011;23318;50.966;5.284;2023-02-19T05:40:44;13.50;;;3.92;;
37459;SDS011;23318;50.966;5.284;2023-02-19T05:43:10;12.85;;;2.92;;
37459;SDS011;23318;50.966;5.284;2023-02-19T05:45:37;13.25;;;2.92;;
37459;SDS011;23318;50.966;5.284;2023-02-19T05:48:04;13.65;;;2.25;;
37459;SDS011;23318;50.966;5.284;2023-02-19T05:50:31;13.15;;;3.05;;
37459;SDS011;23318;50.966;5.284;2023-02-19T05:52:59;11.68;;;2.78;;
37459;SDS011;23318;50.966;5.284;2023-02-19T05:55:26;15.20;;;3.13;;
37459;SDS011;23318;50.966;5.284;2023-02-19T05:57:52;14.57;;;3.22;;
37459;SDS011;23318;50.966;5.284;2023-02-19T06:00:18;14.18;;;2.70;;
37459;SDS011;23318;50.966;5.284;2023-02-19T06:02:44;15.55;;;3.58;;
37459;SDS011;23318;50.966;5.284;2023-02-19T06:05:11;19.42;;;3.45;;
37459;SDS011;23318;50.966;5.284;2023-02-19T06:07:37;9.70;;;2.38;;
37459;SDS011;23318;50.966;5.284;2023-02-19T06:10:04;17.90;;;3.33;;
37459;SDS011;23318;50.966;5.284;2023-02-19T06:12:30;16.50;;;3.55;;
37459;SDS011;23318;50.966;5.284;2023-02-19T06:14:56;18.33;;;3.47;;
37459;SDS011;23318;50.966;5.284;2023-02-19T06:17:22;13.88;;;3.13;;
37459;SDS011;23318;50.966;5.284;2023-02-19T06:19:48;20.00;;;3.25;;
37459;SDS011;23318;50.966;5.284;2023-02-19T06:22:14;17.13;;;3.30;;
37459;SDS011;23318;50.966;5.284;2023-02-19T06:24:39;11.57;;;2.78;;
37459;SDS011;23318;50.966;5.284;2023-02-19T06:27:06;18.15;;;3.47;;
37459;SDS011;23318;50.966;5.284;2023-02-19T06:29:32;21.58;;;3.58;;
37459;SDS011;23318;50.966;5.284;2023-02-19T06:31:59;14.05;;;3.22;;
37459;SDS011;23318;50.966;5.284;2023-02-19T06:34:24;14.40;;;2.65;;
37459;SDS011;23318;50.966;5.284;2023-02-19T06:36:50;16.75;;;3.95;;
37459;SDS011;23318;50.966;5.284;2023-02-19T06:39:16;18.55;;;3.30;;
37459;SDS011;23318;50.966;5.284;2023-02-19T06:41:42;17.35;;;3.40;;
37459;SDS011;23318;50.966;5.284;2023-02-19T06:44:08;20.38;;;4.30;;
37459;SDS011;23318;50.966;5.284;2023-02-19T06:46:33;18.50;;;3.88;;
37459;SDS011;23318;50.966;5.284;2023-02-19T06:48:59;16.30;;;3.20;;
37459;SDS011;23318;50.966;5.284;2023-02-19T06:51:27;17.92;;;3.20;;
37459;SDS011;23318;50.966;5.284;2023-02-19T06:53:53;23.88;;;3.70;;
37459;SDS011;23318;50.966;5.284;2023-02-19T06:58:57;15.90;;;3.63;;
37459;SDS011;23318;50.966;5.284;2023-02-19T07:01:24;14.55;;;3.50;;
37459;SDS011;23318;50.966;5.284;2023-02-19T07:03:50;16.85;;;3.72;;
37459;SDS011;23318;50.966;5.284;2023-02-19T07:06:17;17.00;;;3.65;;
37459;SDS011;23318;50.966;5.284;2023-02-19T07:08:43;18.90;;;3.63;;
37459;SDS011;23318;50.966;5.284;2023-02-19T07:11:09;20.83;;;4.05;;
37459;SDS011;23318;50.966;5.284;2023-02-19T07:13:35;12.43;;;3.22;;
37459;SDS011;23318;50.966;5.284;2023-02-19T07:16:01;22.98;;;3.88;;
37459;SDS011;23318;50.966;5.284;2023-02-19T07:18:29;19.00;;;3.83;;
37459;SDS011;23318;50.966;5.284;2023-02-19T07:21:05;19.73;;;4.28;;
37459;SDS011;23318;50.966;5.284;2023-02-19T07:23:35;20.35;;;3.22;;
37459;SDS011;23318;50.966;5.284;2023-02-19T07:26:01;17.17;;;3.70;;
37459;SDS011;23318;50.966;5.284;2023-02-19T07:28:26;20.48;;;3.95;;
37459;SDS011;23318;50.966;5.284;2023-02-19T07:30:52;18.77;;;3.90;;
37459;SDS011;23318;50.966;5.284;2023-02-19T07:33:18;16.00;;;3.20;;
37459;SDS011;23318;50.966;5.284;2023-02-19T07:35:45;20.25;;;3.85;;
37459;SDS011;23318;50.966;5.284;2023-02-19T07:38:13;20.90;;;3.78;;
37459;SDS011;23318;50.966;5.284;2023-02-19T07:41:00;17.45;;;3.70;;
37459;SDS011;23318;50.966;5.284;2023-02-19T07:43:28;21.63;;;5.07;;
37459;SDS011;23318;50.966;5.284;2023-02-19T07:45:56;15.77;;;3.20;;
37459;SDS011;23318;50.966;5.284;2023-02-19T07:48:23;16.90;;;3.72;;
37459;SDS011;23318;50.966;5.284;2023-02-19T07:50:52;14.02;;;3.00;;
37459;SDS011;23318;50.966;5.284;2023-02-19T07:55:49;21.05;;;3.58;;
37459;SDS011;23318;50.966;5.284;2023-02-19T07:58:15;16.35;;;3.90;;
37459;SDS011;23318;50.966;5.284;2023-02-19T08:00:40;18.63;;;4.25;;
37459;SDS011;23318;50.966;5.284;2023-02-19T08:03:07;18.95;;;4.10;;
37459;SDS011;23318;50.966;5.284;2023-02-19T08:05:33;19.45;;;3.92;;
37459;SDS011;23318;50.966;5.284;2023-02-19T08:08:02;15.70;;;3.40;;
37459;SDS011;23318;50.966;5.284;2023-02-19T08:10:30;10.13;;;3.25;;
37459;SDS011;23318;50.966;5.284;2023-02-19T08:15:44;17.23;;;3.70;;
37459;SDS011;23318;50.966;5.284;2023-02-19T08:18:11;15.43;;;3.13;;
37459;SDS011;23318;50.966;5.284;2023-02-19T08:20:38;14.43;;;3.95;;
37459;SDS011;23318;50.966;5.284;2023-02-19T08:23:04;15.95;;;3.40;;
37459;SDS011;23318;50.966;5.284;2023-02-19T08:25:31;21.63;;;4.20;;
37459;SDS011;23318;50.966;5.284;2023-02-19T08:27:57;25.17;;;5.28;;
37459;SDS011;23318;50.966;5.284;2023-02-19T08:30:24;16.65;;;3.78;;
37459;SDS011;23318;50.966;5.284;2023-02-19T08:32:53;25.30;;;5.30;;
37459;SDS011;23318;50.966;5.284;2023-02-19T08:35:19;18.27;;;3.85;;
37459;SDS011;23318;50.966;5.284;2023-02-19T08:37:45;28.70;;;4.43;;
37459;SDS011;23318;50.966;5.284;2023-02-19T08:40:11;22.95;;;4.35;;
37459;SDS011;23318;50.966;5.284;2023-02-19T08:42:37;21.83;;;4.85;;
37459;SDS011;23318;50.966;5.284;2023-02-19T08:45:03;25.73;;;5.45;;
37459;SDS011;23318;50.966;5.284;2023-02-19T08:47:29;21.92;;;4.47;;
37459;SDS011;23318;50.966;5.284;2023-02-19T08:49:55;17.48;;;4.25;;
37459;SDS011;23318;50.966;5.284;2023-02-19T08:52:21;16.80;;;4.63;;
37459;SDS011;23318;50.966;5.284;2023-02-19T08:54:46;20.65;;;3.88;;
37459;SDS011;23318;50.966;5.284;2023-02-19T08:57:12;17.50;;;4.78;;
37459;SDS011;23318;50.966;5.284;2023-02-19T08:59:38;15.48;;;4.68;;
37459;SDS011;23318;50.966;5.284;2023-02-19T09:02:03;24.70;;;4.82;;
37459;SDS011;23318;50.966;5.284;2023-02-19T09:04:29;25.67;;;6.07;;
37459;SDS011;23318;50.966;5.284;2023-02-19T09:06:55;16.27;;;5.10;;
37459;SDS011;23318;50.966;5.284;2023-02-19T09:09:20;24.55;;;6.10;;
37459;SDS011;23318;50.966;5.284;2023-02-19T09:11:46;16.95;;;4.97;;
37459;SDS011;23318;50.966;5.284;2023-02-19T09:14:12;24.38;;;5.30;;
37459;SDS011;23318;50.966;5.284;2023-02-19T09:16:37;20.45;;;6.22;;
37459;SDS011;23318;50.966;5.284;2023-02-19T09:19:03;26.92;;;6.40;;
37459;SDS011;23318;50.966;5.284;2023-02-19T09:21:29;22.77;;;6.07;;
37459;SDS011;23318;50.966;5.284;2023-02-19T09:23:55;23.98;;;6.35;;
37459;SDS011;23318;50.966;5.284;2023-02-19T09:26:20;20.30;;;5.15;;
37459;SDS011;23318;50.966;5.284;2023-02-19T09:28:46;20.75;;;4.85;;
37459;SDS011;23318;50.966;5.284;2023-02-19T09:31:13;25.83;;;6.20;;
37459;SDS011;23318;50.966;5.284;2023-02-19T09:33:43;23.00;;;4.90;;
37459;SDS011;23318;50.966;5.284;2023-02-19T09:36:09;24.45;;;5.35;;
37459;SDS011;23318;50.966;5.284;2023-02-19T09:38:35;23.77;;;5.20;;
37459;SDS011;23318;50.966;5.284;2023-02-19T09:41:24;19.33;;;5.47;;
37459;SDS011;23318;50.966;5.284;2023-02-19T09:43:54;22.48;;;4.85;;
37459;SDS011;23318;50.966;5.284;2023-02-19T09:46:29;16.15;;;5.53;;
37459;SDS011;23318;50.966;5.284;2023-02-19T09:49:02;19.77;;;4.68;;
37459;SDS011;23318;50.966;5.284;2023-02-19T09:51:31;23.00;;;4.90;;
37459;SDS011;23318;50.966;5.284;2023-02-19T09:54:00;19.50;;;5.30;;
37459;SDS011;23318;50.966;5.284;2023-02-19T09:56:28;23.92;;;5.22;;
37459;SDS011;23318;50.966;5.284;2023-02-19T09:58:55;23.60;;;4.50;;
37459;SDS011;23318;50.966;5.284;2023-02-19T10:01:24;21.75;;;4.93;;
37459;SDS011;23318;50.966;5.284;2023-02-19T10:03:54;21.50;;;5.30;;
37459;SDS011;23318;50.966;5.284;2023-02-19T10:06:21;19.02;;;4.82;;
37459;SDS011;23318;50.966;5.284;2023-02-19T10:08:50;18.17;;;4.50;;
37459;SDS011;23318;50.966;5.284;2023-02-19T10:11:17;23.65;;;5.75;;
37459;SDS011;23318;50.966;5.284;2023-02-19T10:13:48;26.42;;;6.32;;
37459;SDS011;23318;50.966;5.284;2023-02-19T10:16:38;21.02;;;4.90;;
37459;SDS011;23318;50.966;5.284;2023-02-19T10:19:12;22.23;;;5.00;;
37459;SDS011;23318;50.966;5.284;2023-02-19T10:21:38;30.42;;;5.93;;
37459;SDS011;23318;50.966;5.284;2023-02-19T10:24:04;13.73;;;5.03;;
37459;SDS011;23318;50.966;5.284;2023-02-19T10:26:31;22.30;;;6.03;;
37459;SDS011;23318;50.966;5.284;2023-02-19T10:29:01;14.82;;;5.05;;
37459;SDS011;23318;50.966;5.284;2023-02-19T10:31:29;17.27;;;5.68;;
37459;SDS011;23318;50.966;5.284;2023-02-19T10:33:56;15.25;;;5.93;;
37459;SDS011;23318;50.966;5.284;2023-02-19T10:38:53;17.90;;;5.32;;
37459;SDS011;23318;50.966;5.284;2023-02-19T10:41:21;15.98;;;5.55;;
37459;SDS011;23318;50.966;5.284;2023-02-19T10:43:50;19.17;;;5.50;;
37459;SDS011;23318;50.966;5.284;2023-02-19T10:46:32;20.38;;;4.85;;
37459;SDS011;23318;50.966;5.284;2023-02-19T10:49:40;18.75;;;5.72;;
37459;SDS011;23318;50.966;5.284;2023-02-19T10:54:56;21.27;;;4.70;;
37459;SDS011;23318;50.966;5.284;2023-02-19T10:57:38;15.20;;;4.67;;
37459;SDS011;23318;50.966;5.284;2023-02-19T11:02:39;15.45;;;4.75;;
37459;SDS011;23318;50.966;5.284;2023-02-19T11:07:51;16.58;;;4.45;;
37459;SDS011;23318;50.966;5.284;2023-02-19T11:12:46;21.80;;;4.40;;
37459;SDS011;23318;50.966;5.284;2023-02-19T11:15:27;23.00;;;5.20;;
37459;SDS011;23318;50.966;5.284;2023-02-19T11:17:59;14.15;;;4.93;;
37459;SDS011;23318;50.966;5.284;2023-02-19T11:20:35;14.93;;;4.82;;
37459;SDS011;23318;50.966;5.284;2023-02-19T11:23:05;20.63;;;5.40;;
37459;SDS011;23318;50.966;5.284;2023-02-19T11:25:43;15.32;;;5.10;;
37459;SDS011;23318;50.966;5.284;2023-02-19T11:30:47;17.95;;;5.95;;
37459;SDS011;23318;50.966;5.284;2023-02-19T11:35:46;25.55;;;6.78;;
37459;SDS011;23318;50.966;5.284;2023-02-19T11:38:13;20.95;;;6.70;;
37459;SDS011;23318;50.966;5.284;2023-02-19T11:45:48;15.02;;;7.53;;
37459;SDS011;23318;50.966;5.284;2023-02-19T11:48:53;21.17;;;7.28;;
37459;SDS011;23318;50.966;5.284;2023-02-19T11:51:45;16.85;;;7.28;;
37459;SDS011;23318;50.966;5.284;2023-02-19T11:55:05;19.85;;;7.90;;
37459;SDS011;23318;50.966;5.284;2023-02-19T12:20:16;17.52;;;6.35;;
37459;SDS011;23318;50.966;5.284;2023-02-19T12:28:32;16.48;;;6.85;;
37459;SDS011;23318;50.966;5.284;2023-02-19T12:31:31;20.05;;;6.43;;
37459;SDS011;23318;50.966;5.284;2023-02-19T12:39:43;12.88;;;6.32;;
37459;SDS011;23318;50.966;5.284;2023-02-19T12:45:02;21.25;;;7.57;;
37459;SDS011;23318;50.966;5.284;2023-02-19T12:47:39;17.35;;;6.97;;
37459;SDS011;23318;50.966;5.284;2023-02-19T12:50:13;14.73;;;6.25;;
37459;SDS011;23318;50.966;5.284;2023-02-19T12:52:42;14.55;;;6.20;;
37459;SDS011;23318;50.966;5.284;2023-02-19T12:57:58;12.20;;;6.60;;
37459;SDS011;23318;50.966;5.284;2023-02-19T13:00:36;17.80;;;7.85;;
37459;SDS011;23318;50.966;5.284;2023-02-19T13:03:09;20.60;;;8.30;;
37459;SDS011;23318;50.966;5.284;2023-02-19T13:08:37;14.30;;;7.30;;
37459;SDS011;23318;50.966;5.284;2023-02-19T13:11:11;16.85;;;8.02;;
37459;SDS011;23318;50.966;5.284;2023-02-19T13:16:13;21.40;;;8.38;;
37459;SDS011;23318;50.966;5.284;2023-02-19T13:18:43;18.70;;;9.77;;
37459;SDS011;23318;50.966;5.284;2023-02-19T13:21:12;16.35;;;9.55;;
37459;SDS011;23318;50.966;5.284;2023-02-19T13:24:02;15.77;;;8.02;;
37459;SDS011;23318;50.966;5.284;2023-02-19T13:37:25;15.88;;;8.57;;
37459;SDS011;23318;50.966;5.284;2023-02-19T13:39:52;16.15;;;8.13;;
37459;SDS011;23318;50.966;5.284;2023-02-19T13:42:22;17.02;;;8.15;;
37459;SDS011;23318;50.966;5.284;2023-02-19T13:44:56;14.63;;;7.22;;
37459;SDS011;23318;50.966;5.284;2023-02-19T13:50:16;16.48;;;7.75;;
37459;SDS011;23318;50.966;5.284;2023-02-19T13:52:46;20.35;;;8.88;;
37459;SDS011;23318;50.966;5.284;2023-02-19T14:07:06;13.88;;;5.32;;
37459;SDS011;23318;50.966;5.284;2023-02-19T14:12:02;11.07;;;5.18;;
37459;SDS011;23318;50.966;5.284;2023-02-19T14:14:33;12.13;;;5.30;;
37459;SDS011;23318;50.966;5.284;2023-02-19T14:30:26;21.75;;;5.47;;
37459;SDS011;23318;50.966;5.284;2023-02-19T14:32:52;8.30;;;4.40;;
37459;SDS011;23318;50.966;5.284;2023-02-19T14:35:22;10.80;;;5.35;;
37459;SDS011;23318;50.966;5.284;2023-02-19T14:37:54;10.80;;;5.50;;
37459;SDS011;23318;50.966;5.284;2023-02-19T14:40:39;11.48;;;6.03;;
37459;SDS011;23318;50.966;5.284;2023-02-19T14:43:13;7.05;;;4.25;;
37459;SDS011;23318;50.966;5.284;2023-02-19T14:45:42;10.68;;;4.30;;
37459;SDS011;23318;50.966;5.284;2023-02-19T14:48:31;7.28;;;3.55;;
37459;SDS011;23318;50.966;5.284;2023-02-19T14:51:05;6.78;;;4.32;;
37459;SDS011;23318;50.966;5.284;2023-02-19T14:53:36;7.32;;;3.65;;
37459;SDS011;23318;50.966;5.284;2023-02-19T14:56:06;11.20;;;4.60;;
37459;SDS011;23318;50.966;5.284;2023-02-19T14:58:40;9.85;;;4.50;;
37459;SDS011;23318;50.966;5.284;2023-02-19T15:01:06;7.35;;;3.50;;
37459;SDS011;23318;50.966;5.284;2023-02-19T15:03:52;5.60;;;3.40;;
37459;SDS011;23318;50.966;5.284;2023-02-19T15:06:18;6.85;;;2.50;;
37459;SDS011;23318;50.966;5.284;2023-02-19T15:08:45;5.80;;;2.95;;
37459;SDS011;23318;50.966;5.284;2023-02-19T15:11:15;6.40;;;3.17;;
37459;SDS011;23318;50.966;5.284;2023-02-19T15:14:00;5.70;;;2.30;;
37459;SDS011;23318;50.966;5.284;2023-02-19T15:18:55;7.40;;;2.40;;
37459;SDS011;23318;50.966;5.284;2023-02-19T15:21:23;5.88;;;2.45;;
37459;SDS011;23318;50.966;5.284;2023-02-19T15:23:55;4.03;;;1.80;;
37459;SDS011;23318;50.966;5.284;2023-02-19T15:26:26;5.63;;;2.28;;
37459;SDS011;23318;50.966;5.284;2023-02-19T15:29:00;5.03;;;2.05;;
37459;SDS011;23318;50.966;5.284;2023-02-19T15:31:27;2.65;;;1.60;;
37459;SDS011;23318;50.966;5.284;2023-02-19T15:33:53;4.63;;;2.40;;
37459;SDS011;23318;50.966;5.284;2023-02-19T15:36:23;3.20;;;2.17;;
37459;SDS011;23318;50.966;5.284;2023-02-19T15:38:54;4.60;;;2.03;;
37459;SDS011;23318;50.966;5.284;2023-02-19T15:41:23;7.32;;;2.83;;
37459;SDS011;23318;50.966;5.284;2023-02-19T15:44:01;6.70;;;2.80;;
37459;SDS011;23318;50.966;5.284;2023-02-19T15:46:46;10.63;;;3.40;;
37459;SDS011;23318;50.966;5.284;2023-02-19T15:49:14;8.60;;;3.63;;
37459;SDS011;23318;50.966;5.284;2023-02-19T15:51:49;5.78;;;3.70;;
37459;SDS011;23318;50.966;5.284;2023-02-19T15:54:26;11.05;;;4.25;;
37459;SDS011;23318;50.966;5.284;2023-02-19T15:57:13;3.22;;;2.30;;
37459;SDS011;23318;50.966;5.284;2023-02-19T15:59:46;6.07;;;2.33;;
37459;SDS011;23318;50.966;5.284;2023-02-19T16:02:24;3.28;;;2.20;;
37459;SDS011;23318;50.966;5.284;2023-02-19T16:04:50;3.60;;;1.88;;
37459;SDS011;23318;50.966;5.284;2023-02-19T16:07:23;3.05;;;1.98;;
37459;SDS011;23318;50.966;5.284;2023-02-19T16:12:43;4.20;;;2.35;;
37459;SDS011;23318;50.966;5.284;2023-02-19T16:15:18;4.68;;;2.47;;
37459;SDS011;23318;50.966;5.284;2023-02-19T16:17:44;2.70;;;2.00;;
37459;SDS011;23318;50.966;5.284;2023-02-19T16:23:12;5.15;;;2.60;;
37459;SDS011;23318;50.966;5.284;2023-02-19T16:25:43;5.47;;;2.40;;
37459;SDS011;23318;50.966;5.284;2023-02-19T16:28:16;4.18;;;2.35;;
37459;SDS011;23318;50.966;5.284;2023-02-19T16:30:45;2.92;;;2.10;;
37459;SDS011;23318;50.966;5.284;2023-02-19T16:36:16;5.38;;;2.15;;
37459;SDS011;23318;50.966;5.284;2023-02-19T16:39:24;6.47;;;3.13;;
37459;SDS011;23318;50.966;5.284;2023-02-19T16:41:55;5.80;;;3.10;;
37459;SDS011;23318;50.966;5.284;2023-02-19T16:46:49;2.75;;;1.70;;
37459;SDS011;23318;50.966;5.284;2023-02-19T16:49:17;2.53;;;1.80;;
37459;SDS011;23318;50.966;5.284;2023-02-19T16:51:44;3.08;;;2.05;;
37459;SDS011;23318;50.966;5.284;2023-02-19T16:54:11;4.75;;;1.83;;
37459;SDS011;23318;50.966;5.284;2023-02-19T16:56:36;3.10;;;1.20;;
37459;SDS011;23318;50.966;5.284;2023-02-19T16:59:02;3.47;;;1.70;;
37459;SDS011;23318;50.966;5.284;2023-02-19T17:01:28;3.08;;;1.70;;
37459;SDS011;23318;50.966;5.284;2023-02-19T17:03:56;3.38;;;1.40;;
37459;SDS011;23318;50.966;5.284;2023-02-19T17:06:24;2.53;;;1.35;;
37459;SDS011;23318;50.966;5.284;2023-02-19T17:08:50;1.85;;;1.00;;
37459;SDS011;23318;50.966;5.284;2023-02-19T17:11:16;3.47;;;1.40;;
37459;SDS011;23318;50.966;5.284;2023-02-19T17:13:42;4.28;;;1.45;;
37459;SDS011;23318;50.966;5.284;2023-02-19T17:16:16;2.38;;;1.42;;
37459;SDS011;23318;50.966;5.284;2023-02-19T17:18:43;1.20;;;1.10;;
37459;SDS011;23318;50.966;5.284;2023-02-19T17:21:11;1.92;;;1.40;;
37459;SDS011;23318;50.966;5.284;2023-02-19T17:23:45;2.65;;;1.55;;
37459;SDS011;23318;50.966;5.284;2023-02-19T17:26:15;5.60;;;1.58;;
37459;SDS011;23318;50.966;5.284;2023-02-19T17:28:43;1.67;;;1.55;;
37459;SDS011;23318;50.966;5.284;2023-02-19T17:31:09;4.00;;;1.50;;
37459;SDS011;23318;50.966;5.284;2023-02-19T17:33:35;2.35;;;1.40;;
37459;SDS011;23318;50.966;5.284;2023-02-19T17:36:01;2.70;;;2.10;;
37459;SDS011;23318;50.966;5.284;2023-02-19T17:38:27;3.17;;;1.90;;
37459;SDS011;23318;50.966;5.284;2023-02-19T17:40:53;4.43;;;2.15;;
37459;SDS011;23318;50.966;5.284;2023-02-19T17:43:19;7.80;;;2.40;;
37459;SDS011;23318;50.966;5.284;2023-02-19T17:45:44;5.65;;;2.75;;
37459;SDS011;23318;50.966;5.284;2023-02-19T17:48:10;3.80;;;2.45;;